DLH2 EDDF-EDDH
Flight info
| Callsign | DLH2 |
|---|---|
| Flight time | N/A |
| Altitude | 35000 |
| Route | MARUN5E MARUN Y150 TOLGI DCT SAS/N0447F340 P605 NOLGO NOLGO6A |
| Aircraft | A320/M-SDE3FGHIRWY/LB1 |
Departure
| Time | N/A |
|---|---|
| Airport | Frankfurt Main Airport (EDDF) |
Arrival
| Time | 2026-04-20 22:47 |
|---|---|
| Airport | Hamburg Helmut Schmidt Airport (EDDH) |
| Time | Latitude | Longitude | Altitude | Speed | Heading |
|---|---|---|---|---|---|
| 2026-04-20 22:28 | 52.88966 | 10.02400 | 21530 ft | 351 kts | 11° |
| 2026-04-20 22:28 | 52.91376 | 10.02940 | 21091 ft | 349 kts | 11° |
| 2026-04-20 22:29 | 52.93776 | 10.03473 | 20661 ft | 346 kts | 11° |
| 2026-04-20 22:29 | 52.96156 | 10.04000 | 20223 ft | 342 kts | 11° |
| 2026-04-20 22:29 | 52.98464 | 10.04506 | 19994 ft | 326 kts | 11° |
| 2026-04-20 22:29 | 53.00680 | 10.04994 | 19475 ft | 319 kts | 11° |
| 2026-04-20 22:30 | 53.02854 | 10.05479 | 18952 ft | 310 kts | 11° |
| 2026-04-20 22:30 | 53.04986 | 10.05956 | 18525 ft | 300 kts | 11° |
| 2026-04-20 22:30 | 53.07018 | 10.06413 | 18089 ft | 290 kts | 12° |
| 2026-04-20 22:30 | 53.09017 | 10.06865 | 17679 ft | 290 kts | 11° |
| 2026-04-20 22:31 | 53.11013 | 10.07316 | 17275 ft | 290 kts | 11° |
| 2026-04-20 22:31 | 53.13021 | 10.07773 | 16867 ft | 292 kts | 11° |
| 2026-04-20 22:31 | 53.15035 | 10.08234 | 16468 ft | 293 kts | 11° |
| 2026-04-20 22:31 | 53.17060 | 10.08695 | 16054 ft | 294 kts | 11° |
| 2026-04-20 22:32 | 53.19098 | 10.09156 | 15637 ft | 296 kts | 11° |
| 2026-04-20 22:32 | 53.21144 | 10.09618 | 15218 ft | 298 kts | 11° |
| 2026-04-20 22:32 | 53.23204 | 10.10083 | 14790 ft | 300 kts | 11° |
| 2026-04-20 22:32 | 53.25267 | 10.10553 | 14476 ft | 297 kts | 11° |
| 2026-04-20 22:33 | 53.27326 | 10.11023 | 14096 ft | 298 kts | 11° |
| 2026-04-20 22:33 | 53.29350 | 10.11481 | 13590 ft | 292 kts | 11° |
| 2026-04-20 22:33 | 53.31352 | 10.11936 | 13047 ft | 288 kts | 11° |
| 2026-04-20 22:33 | 53.33336 | 10.12384 | 12649 ft | 286 kts | 11° |
| 2026-04-20 22:34 | 53.35298 | 10.12827 | 12251 ft | 284 kts | 11° |
| 2026-04-20 22:34 | 53.37272 | 10.12971 | 11865 ft | 286 kts | 358° |
| 2026-04-20 22:34 | 53.39228 | 10.12285 | 11484 ft | 289 kts | 344° |
| 2026-04-20 22:34 | 53.41035 | 10.10771 | 11085 ft | 293 kts | 329° |
| 2026-04-20 22:35 | 53.42574 | 10.08517 | 10721 ft | 296 kts | 315° |
| 2026-04-20 22:35 | 53.43949 | 10.05961 | 10377 ft | 295 kts | 315° |
| 2026-04-20 22:35 | 53.45322 | 10.03411 | 9997 ft | 293 kts | 315° |
| 2026-04-20 22:35 | 53.46682 | 10.00893 | 9590 ft | 288 kts | 315° |
| 2026-04-20 22:36 | 53.47970 | 9.98422 | 9186 ft | 276 kts | 308° |
| 2026-04-20 22:36 | 53.48713 | 9.95514 | 8794 ft | 271 kts | 280° |
| 2026-04-20 22:36 | 53.48608 | 9.92425 | 8401 ft | 264 kts | 252° |
| 2026-04-20 22:36 | 53.47732 | 9.89766 | 8016 ft | 260 kts | 228° |
| 2026-04-20 22:37 | 53.46782 | 9.87860 | 7703 ft | 259 kts | 228° |
| 2026-04-20 22:37 | 53.45623 | 9.85543 | 7321 ft | 258 kts | 228° |
| 2026-04-20 22:37 | 53.44478 | 9.83252 | 6950 ft | 255 kts | 228° |
| 2026-04-20 22:37 | 53.43339 | 9.80974 | 6527 ft | 254 kts | 228° |
| 2026-04-20 22:38 | 53.42209 | 9.78711 | 6138 ft | 253 kts | 229° |
| 2026-04-20 22:38 | 53.41063 | 9.76423 | 5736 ft | 252 kts | 228° |
| 2026-04-20 22:38 | 53.39942 | 9.74183 | 5343 ft | 249 kts | 228° |
| 2026-04-20 22:38 | 53.38829 | 9.71961 | 4953 ft | 249 kts | 228° |
| 2026-04-20 22:39 | 53.37988 | 9.69810 | 4593 ft | 249 kts | 247° |
| 2026-04-20 22:39 | 53.37691 | 9.66968 | 4205 ft | 251 kts | 276° |
| 2026-04-20 22:39 | 53.38187 | 9.64231 | 3988 ft | 243 kts | 305° |
| 2026-04-20 22:39 | 53.39311 | 9.62189 | 4000 ft | 237 kts | 331° |
| 2026-04-20 22:40 | 53.40789 | 9.61136 | 4009 ft | 229 kts | 351° |
| 2026-04-20 22:40 | 53.42362 | 9.60892 | 4007 ft | 229 kts | 9° |
| 2026-04-20 22:40 | 53.43889 | 9.61544 | 4028 ft | 220 kts | 29° |
| 2026-04-20 22:40 | 53.45103 | 9.62898 | 4025 ft | 202 kts | 46° |
| 2026-04-20 22:41 | 53.46026 | 9.64661 | 4034 ft | 201 kts | 52° |
| 2026-04-20 22:41 | 53.46924 | 9.66453 | 4035 ft | 201 kts | 52° |
| 2026-04-20 22:41 | 53.47825 | 9.68251 | 4035 ft | 201 kts | 52° |
| 2026-04-20 22:41 | 53.48723 | 9.70044 | 4038 ft | 201 kts | 52° |
| 2026-04-20 22:42 | 53.49626 | 9.71850 | 3933 ft | 202 kts | 52° |
| 2026-04-20 22:42 | 53.50524 | 9.73646 | 3703 ft | 199 kts | 53° |
| 2026-04-20 22:42 | 53.51415 | 9.75429 | 3437 ft | 198 kts | 53° |
| 2026-04-20 22:42 | 53.52298 | 9.77199 | 3165 ft | 196 kts | 53° |
| 2026-04-20 22:43 | 53.53147 | 9.78900 | 2905 ft | 184 kts | 53° |
| 2026-04-20 22:43 | 53.53942 | 9.80492 | 2671 ft | 173 kts | 54° |
| 2026-04-20 22:43 | 53.54703 | 9.82021 | 2423 ft | 167 kts | 54° |
| 2026-04-20 22:43 | 53.55432 | 9.83484 | 2193 ft | 155 kts | 54° |
| 2026-04-20 22:44 | 53.56103 | 9.84834 | 1989 ft | 149 kts | 55° |
| 2026-04-20 22:44 | 53.56765 | 9.86168 | 1780 ft | 148 kts | 55° |
| 2026-04-20 22:44 | 53.57419 | 9.87486 | 1560 ft | 147 kts | 54° |
| 2026-04-20 22:44 | 53.58066 | 9.88788 | 1360 ft | 138 kts | 53° |
| 2026-04-20 22:45 | 53.58662 | 9.89987 | 1150 ft | 129 kts | 54° |
| 2026-04-20 22:45 | 53.59196 | 9.91065 | 976 ft | 128 kts | 53° |
| 2026-04-20 22:45 | 53.59765 | 9.92210 | 776 ft | 126 kts | 51° |
| 2026-04-20 22:45 | 53.60326 | 9.93346 | 614 ft | 125 kts | 50° |
| 2026-04-20 22:46 | 53.60886 | 9.94483 | 431 ft | 128 kts | 50° |
| 2026-04-20 22:46 | 53.61454 | 9.95629 | 256 ft | 126 kts | 49° |
| 2026-04-20 22:46 | 53.62015 | 9.96760 | 93 ft | 126 kts | 50° |
| 2026-04-20 22:46 | 53.62540 | 9.97818 | 51 ft | 101 kts | 50° |
| 2026-04-20 22:47 | 53.62879 | 9.98505 | 52 ft | 52 kts | 50° |
| 2026-04-20 22:47 | 53.63085 | 9.98920 | 52 ft | 39 kts | 51° |
| 2026-04-20 22:47 | 53.63244 | 9.99249 | 54 ft | 26 kts | 51° |
| 2026-04-20 22:47 | 53.63291 | 9.99486 | 51 ft | 19 kts | 95° |
| 2026-04-20 22:48 | 53.63272 | 9.99655 | 51 ft | 9 kts | 99° |
| 2026-04-20 22:48 | 53.63267 | 9.99705 | 51 ft | 1 kts | 99° |
| 2026-04-20 22:48 | 53.63267 | 9.99706 | 51 ft | 0 kts | 99° |
| 2026-04-20 22:48 | 53.63281 | 9.99758 | 49 ft | 10 kts | 49° |
| 2026-04-20 22:49 | 53.63313 | 9.99787 | 51 ft | 10 kts | 56° |
| 2026-04-20 22:49 | 53.63341 | 9.99879 | 51 ft | 6 kts | 59° |
| 2026-04-20 22:49 | 53.63368 | 9.99937 | 51 ft | 8 kts | 51° |
| 2026-04-20 22:49 | 53.63402 | 10.00008 | 51 ft | 7 kts | 51° |
| 2026-04-20 22:50 | 53.63429 | 10.00082 | 51 ft | 8 kts | 78° |
| 2026-04-20 22:50 | 53.63411 | 10.00154 | 51 ft | 6 kts | 143° |
| 2026-04-20 22:50 | 53.63378 | 10.00189 | 51 ft | 5 kts | 138° |
| 2026-04-20 22:50 | 53.63369 | 10.00268 | 51 ft | 7 kts | 85° |
| 2026-04-20 22:51 | 53.63371 | 10.00327 | 51 ft | 3 kts | 88° |
| 2026-04-20 22:51 | 53.63371 | 10.00339 | 48 ft | 0 kts | 86° |